createdAt,value
2023-02-15T00:02:33.933Z,8.00
2023-02-15T00:05:36.058Z,8.00
2023-02-15T00:08:38.309Z,8.00
2023-02-15T00:11:41.265Z,7.90
2023-02-15T00:14:43.533Z,7.90
2023-02-15T00:17:45.717Z,7.90
2023-02-15T00:20:47.870Z,7.90
2023-02-15T00:23:50.056Z,7.90
2023-02-15T00:26:52.182Z,7.90
2023-02-15T00:29:54.375Z,7.90
2023-02-15T00:32:56.621Z,7.90
2023-02-15T00:36:00.658Z,7.90
2023-02-15T00:39:03.664Z,7.90
2023-02-15T00:42:06.004Z,7.90
2023-02-15T00:45:08.748Z,7.90
2023-02-15T00:48:11.123Z,7.90
2023-02-15T00:51:13.318Z,7.90
2023-02-15T00:54:15.476Z,7.90
2023-02-15T00:57:17.711Z,7.90
2023-02-15T01:00:20.839Z,7.90
2023-02-15T01:03:25.201Z,7.90
2023-02-15T01:06:28.251Z,7.90
2023-02-15T01:09:49.081Z,7.90
2023-02-15T01:12:52.234Z,7.90
2023-02-15T01:15:55.963Z,7.90
2023-02-15T01:18:58.425Z,7.80
2023-02-15T01:22:00.680Z,7.80
2023-02-15T01:25:02.925Z,7.80
2023-02-15T01:28:05.654Z,7.80
2023-02-15T01:31:14.403Z,7.80
2023-02-15T01:34:16.601Z,7.80
2023-02-15T01:37:18.768Z,7.80
2023-02-15T01:40:21.154Z,7.80
2023-02-15T01:43:23.312Z,7.80
2023-02-15T01:46:39.440Z,7.80
2023-02-15T01:49:44.898Z,7.80
2023-02-15T01:53:00.098Z,7.80
2023-02-15T01:56:20.390Z,7.80
2023-02-15T01:59:26.393Z,7.80
2023-02-15T02:02:29.442Z,7.80
2023-02-15T02:05:32.056Z,7.80
2023-02-15T02:08:34.710Z,7.80
2023-02-15T02:11:37.047Z,7.80
2023-02-15T02:14:40.962Z,7.80
2023-02-15T02:18:10.659Z,7.80
2023-02-15T02:21:24.830Z,7.80
2023-02-15T02:24:50.870Z,7.80
2023-02-15T02:28:26.876Z,7.80
2023-02-15T02:31:41.484Z,7.80
2023-02-15T02:34:54.650Z,7.80
2023-02-15T02:38:25.766Z,7.70
2023-02-15T02:42:06.251Z,7.70
2023-02-15T02:45:20.927Z,7.70
2023-02-15T02:48:29.032Z,7.70
2023-02-15T02:51:31.596Z,7.70
2023-02-15T02:54:37.126Z,7.70
2023-02-15T02:57:46.303Z,7.70
2023-02-15T03:01:10.221Z,7.70
2023-02-15T03:04:20.240Z,7.70
2023-02-15T03:07:24.226Z,7.70
2023-02-15T03:10:28.441Z,7.70
2023-02-15T03:13:31.571Z,7.70
2023-02-15T03:16:34.678Z,7.70
2023-02-15T03:19:38.925Z,7.70
2023-02-15T03:22:52.141Z,7.70
2023-02-15T03:25:58.770Z,7.70
2023-02-15T03:29:03.681Z,7.70
2023-02-15T03:32:10.287Z,7.70
2023-02-15T03:35:12.758Z,7.70
2023-02-15T03:38:21.724Z,7.70
2023-02-15T03:41:26.984Z,7.70
2023-02-15T03:44:32.087Z,7.60
2023-02-15T03:47:42.393Z,7.60
2023-02-15T03:51:03.180Z,7.60
2023-02-15T03:54:10.276Z,7.60
2023-02-15T03:57:40.526Z,7.60
2023-02-15T04:01:05.941Z,7.60
2023-02-15T04:04:25.218Z,7.60
2023-02-15T04:07:27.782Z,7.60
2023-02-15T04:10:48.742Z,7.60
2023-02-15T04:13:57.528Z,7.60
2023-02-15T04:16:59.905Z,7.60
2023-02-15T04:20:20.879Z,7.60
2023-02-15T04:23:41.674Z,7.60
2023-02-15T04:26:44.002Z,7.60
2023-02-15T04:29:46.071Z,7.60
2023-02-15T04:32:48.824Z,7.50
2023-02-15T04:35:50.914Z,7.50
2023-02-15T04:38:53.177Z,7.50
2023-02-15T04:41:55.442Z,7.60
2023-02-15T04:44:57.715Z,7.50
2023-02-15T04:47:59.950Z,7.50
2023-02-15T04:51:10.549Z,7.50
2023-02-15T04:54:12.767Z,7.50
2023-02-15T04:57:15.033Z,7.50
2023-02-15T05:00:17.954Z,7.50
2023-02-15T05:03:20.035Z,7.50
2023-02-15T05:06:22.203Z,7.50
2023-02-15T05:09:24.564Z,7.50
2023-02-15T05:12:26.721Z,7.50
2023-02-15T05:15:28.969Z,7.50
2023-02-15T05:18:31.205Z,7.50
2023-02-15T05:21:33.845Z,7.50
2023-02-15T05:24:54.525Z,7.50
2023-02-15T05:28:15.188Z,7.50
2023-02-15T05:31:21.130Z,7.50
2023-02-15T05:34:23.484Z,7.50
2023-02-15T05:37:25.665Z,7.50
2023-02-15T05:40:28.146Z,7.50
2023-02-15T05:43:30.535Z,7.50
2023-02-15T05:46:32.842Z,7.50
2023-02-15T05:49:35.398Z,7.50
2023-02-15T05:52:37.735Z,7.50
2023-02-15T05:55:40.974Z,7.50
2023-02-15T05:58:43.647Z,7.40
2023-02-15T06:01:45.923Z,7.40
2023-02-15T06:04:48.255Z,7.40
2023-02-15T06:07:50.571Z,7.50
2023-02-15T06:10:52.668Z,7.40
2023-02-15T06:13:54.782Z,7.50
2023-02-15T06:16:57.085Z,7.40
2023-02-15T06:19:59.341Z,7.40
2023-02-15T06:23:01.511Z,7.40
2023-02-15T06:26:03.984Z,7.40
2023-02-15T06:29:06.303Z,7.40
2023-02-15T06:32:08.647Z,7.40
2023-02-15T06:35:11.085Z,7.40
2023-02-15T06:38:14.506Z,7.40
2023-02-15T06:41:16.940Z,7.40
2023-02-15T06:44:19.161Z,7.40
2023-02-15T06:47:21.344Z,7.40
2023-02-15T06:50:23.620Z,7.40
2023-02-15T06:53:25.796Z,7.40
2023-02-15T06:56:28.099Z,7.40
2023-02-15T06:59:30.443Z,7.40
2023-02-15T07:02:32.769Z,7.40
2023-02-15T07:05:35.861Z,7.40
2023-02-15T07:08:39.450Z,7.40
2023-02-15T07:12:00.037Z,7.40
2023-02-15T07:26:15.143Z,7.40
2023-02-15T07:33:24.270Z,7.30
2023-02-15T07:36:26.343Z,7.30
2023-02-15T07:39:28.480Z,7.30
2023-02-15T07:42:32.053Z,7.30
2023-02-15T07:45:34.250Z,7.30
2023-02-15T07:48:37.547Z,7.30
2023-02-15T07:51:39.880Z,7.30
2023-02-15T07:54:42.032Z,7.30
2023-02-15T07:57:45.916Z,7.30
2023-02-15T08:00:57.448Z,7.30
2023-02-15T08:04:00.352Z,7.30
2023-02-15T08:07:02.605Z,7.30
2023-02-15T08:10:05.212Z,7.30
2023-02-15T08:13:07.407Z,7.30
2023-02-15T08:16:09.536Z,7.30
2023-02-15T08:19:13.615Z,7.30
2023-02-15T08:22:15.971Z,7.30
2023-02-15T08:25:18.152Z,7.30
2023-02-15T08:28:20.385Z,7.30
2023-02-15T08:31:23.028Z,7.30
2023-02-15T08:34:25.515Z,7.30
2023-02-15T08:37:27.786Z,7.30
2023-02-15T08:40:29.990Z,7.30
2023-02-15T08:43:32.456Z,7.30
2023-02-15T08:46:37.006Z,7.30
2023-02-15T08:49:39.094Z,7.30
2023-02-15T08:52:41.354Z,7.30
2023-02-15T08:55:43.587Z,7.30
2023-02-15T08:58:46.208Z,7.30
2023-02-15T09:01:50.728Z,7.30
2023-02-15T09:04:53.860Z,7.30
2023-02-15T09:07:55.983Z,7.30
2023-02-15T09:11:13.229Z,7.30
2023-02-15T09:14:25.584Z,7.40
2023-02-15T09:17:27.978Z,7.30
2023-02-15T09:20:30.248Z,7.30
2023-02-15T09:23:32.572Z,7.30
2023-02-15T09:26:38.600Z,7.30
2023-02-15T09:29:40.991Z,7.30
2023-02-15T09:32:43.229Z,7.30
2023-02-15T09:35:45.488Z,7.30
2023-02-15T09:38:48.486Z,7.30
2023-02-15T09:41:56.395Z,7.30
2023-02-15T09:45:37.703Z,7.30
2023-02-15T09:48:53.713Z,7.30
2023-02-15T09:52:06.722Z,7.30
2023-02-15T09:55:13.622Z,7.30
2023-02-15T09:58:41.919Z,7.30
2023-02-15T10:01:59.055Z,7.30
2023-02-15T10:05:30.242Z,7.30
2023-02-15T10:09:01.659Z,7.40
2023-02-15T10:12:32.483Z,7.30
2023-02-15T10:16:09.093Z,7.30
2023-02-15T10:19:28.634Z,7.30
2023-02-15T10:22:52.472Z,7.40
2023-02-15T10:26:20.956Z,7.40
2023-02-15T10:29:35.831Z,7.40
2023-02-15T10:33:08.057Z,7.40
2023-02-15T10:36:17.408Z,7.40
2023-02-15T10:39:51.572Z,7.40
2023-02-15T10:43:05.498Z,7.30
2023-02-15T10:46:17.682Z,7.30
2023-02-15T10:49:38.694Z,7.40
2023-02-15T10:52:43.593Z,7.40
2023-02-15T10:55:53.315Z,7.40
2023-02-15T10:59:26.708Z,7.40
2023-02-15T11:02:38.174Z,7.40
2023-02-15T11:05:56.072Z,7.40
2023-02-15T11:09:03.706Z,7.40
2023-02-15T11:12:12.704Z,7.40
2023-02-15T11:15:36.455Z,7.40
2023-02-15T11:19:12.801Z,7.40
2023-02-15T11:22:17.166Z,7.40
2023-02-15T11:25:28.279Z,7.40
2023-02-15T11:28:40.741Z,7.40
2023-02-15T11:32:23.702Z,7.40
2023-02-15T11:35:32.627Z,7.40
2023-02-15T11:38:36.051Z,7.40
2023-02-15T11:41:55.144Z,7.40
2023-02-15T11:45:08.436Z,7.40
2023-02-15T11:48:13.469Z,7.40
2023-02-15T11:51:18.787Z,7.40
2023-02-15T11:54:27.244Z,7.40
2023-02-15T11:57:41.776Z,7.40
2023-02-15T12:00:46.920Z,7.40
2023-02-15T12:03:51.265Z,7.50
2023-02-15T12:07:03.013Z,7.40
2023-02-15T12:10:08.490Z,7.50
2023-02-15T12:13:20.378Z,7.40
2023-02-15T12:16:22.596Z,7.50
2023-02-15T12:19:27.800Z,7.50
2023-02-15T12:22:33.856Z,7.50
2023-02-15T12:25:54.682Z,7.50
2023-02-15T12:29:03.135Z,7.50
2023-02-15T12:32:05.788Z,7.50
2023-02-15T12:35:19.548Z,7.50
2023-02-15T12:38:26.656Z,7.50
2023-02-15T12:41:28.865Z,7.50
2023-02-15T12:44:31.151Z,7.50
2023-02-15T12:47:33.606Z,7.50
2023-02-15T12:50:36.029Z,7.50
2023-02-15T12:53:38.868Z,7.60
2023-02-15T12:56:41.043Z,7.60
2023-02-15T12:59:55.007Z,7.50
2023-02-15T13:02:59.844Z,7.50
2023-02-15T13:06:08.426Z,7.60
2023-02-15T13:09:33.615Z,7.60
2023-02-15T13:12:36.574Z,7.60
2023-02-15T13:15:45.083Z,7.60
2023-02-15T13:18:51.702Z,7.60
2023-02-15T13:21:56.673Z,7.60
2023-02-15T13:25:02.587Z,7.60
2023-02-15T13:28:06.222Z,7.60
2023-02-15T13:31:18.864Z,7.60
2023-02-15T13:34:30.650Z,7.60
2023-02-15T13:37:55.137Z,7.60
2023-02-15T13:41:02.891Z,7.60
2023-02-15T13:44:29.201Z,7.60
2023-02-15T13:47:52.038Z,7.60
2023-02-15T13:51:15.798Z,7.60
2023-02-15T13:54:24.102Z,7.60
2023-02-15T13:57:54.421Z,7.60
2023-02-15T14:01:05.824Z,7.70
2023-02-15T14:04:23.743Z,7.70
2023-02-15T14:07:31.858Z,7.70
2023-02-15T14:10:55.164Z,7.70
2023-02-15T14:14:24.542Z,7.70
2023-02-15T14:17:44.382Z,7.70
2023-02-15T14:20:52.250Z,7.70
2023-02-15T14:24:03.161Z,7.70
2023-02-15T14:27:08.004Z,7.70
2023-02-15T14:30:24.628Z,7.70
2023-02-15T14:33:41.526Z,7.70
2023-02-15T14:36:44.140Z,7.70
2023-02-15T14:40:21.456Z,7.70
2023-02-15T14:43:35.439Z,7.70
2023-02-15T14:46:40.743Z,7.80
2023-02-15T14:49:42.910Z,7.80
2023-02-15T14:53:38.765Z,7.80
2023-02-15T14:56:40.992Z,7.80
2023-02-15T15:00:01.209Z,7.80
2023-02-15T15:03:25.687Z,7.80
2023-02-15T15:06:33.473Z,7.80
2023-02-15T15:09:38.880Z,7.80
2023-02-15T15:12:41.548Z,7.80
2023-02-15T15:15:47.775Z,7.80
2023-02-15T15:18:50.714Z,7.80
2023-02-15T15:21:54.166Z,7.80
2023-02-15T15:25:34.881Z,7.80
2023-02-15T15:28:36.985Z,7.80
2023-02-15T15:31:48.792Z,7.80
2023-02-15T15:35:21.288Z,7.80
2023-02-15T15:38:35.121Z,7.80
2023-02-15T15:42:05.600Z,7.90
2023-02-15T15:45:43.042Z,7.90
2023-02-15T15:48:45.747Z,7.90
2023-02-15T15:51:49.313Z,7.90
2023-02-15T15:55:03.312Z,7.90
2023-02-15T15:58:08.214Z,7.90
2023-02-15T16:01:14.770Z,7.90
2023-02-15T16:04:30.924Z,7.90
2023-02-15T16:07:33.618Z,7.90
2023-02-15T16:10:38.812Z,7.90
2023-02-15T16:13:42.770Z,7.90
2023-02-15T16:16:52.327Z,7.90
2023-02-15T16:20:07.129Z,8.00
2023-02-15T16:23:14.995Z,8.10
2023-02-15T16:26:54.147Z,8.10
2023-02-15T16:29:56.383Z,8.20
2023-02-15T16:33:18.144Z,8.20
2023-02-15T16:36:28.763Z,8.30
2023-02-15T16:39:31.263Z,8.30
2023-02-15T16:42:35.444Z,8.30
2023-02-15T16:45:39.864Z,8.30
2023-02-15T16:48:46.483Z,8.30
2023-02-15T16:51:58.248Z,8.30
2023-02-15T16:55:04.638Z,8.30
2023-02-15T16:58:09.308Z,8.30
2023-02-15T17:01:15.737Z,8.30
2023-02-15T17:04:23.965Z,8.30
2023-02-15T17:07:26.238Z,8.30
2023-02-15T17:10:37.450Z,8.30
2023-02-15T22:03:50.594Z,8.30
2023-02-15T22:31:27.716Z,8.30
